createdAt,value
2023-03-19T00:03:28.079Z,7.14
2023-03-19T00:07:28.054Z,6.05
2023-03-19T00:11:28.154Z,7.18
2023-03-19T00:15:28.214Z,7.13
2023-03-19T00:19:28.414Z,8.00
2023-03-19T00:23:28.385Z,7.99
2023-03-19T00:27:28.483Z,6.97
2023-03-19T00:31:28.602Z,7.86
2023-03-19T00:35:28.704Z,6.79
2023-03-19T00:39:28.954Z,8.40
2023-03-19T00:43:29.072Z,7.27
2023-03-19T00:47:29.272Z,8.49
2023-03-19T00:51:29.421Z,8.59
2023-03-19T00:55:29.911Z,9.79
2023-03-19T00:59:29.563Z,9.40
2023-03-19T01:03:29.632Z,8.66
2023-03-19T01:07:29.927Z,9.73
2023-03-19T01:11:29.896Z,9.65
2023-03-19T01:15:29.978Z,10.39
2023-03-19T01:19:30.037Z,10.31
2023-03-19T01:23:30.427Z,8.32
2023-03-19T01:27:30.503Z,8.60
2023-03-19T01:31:30.894Z,8.72
2023-03-19T01:35:30.924Z,8.73
2023-03-19T01:39:31.342Z,8.20
2023-03-19T01:43:30.904Z,7.41
2023-03-19T01:47:30.462Z,7.90
2023-03-19T01:51:30.470Z,5.41
2023-03-19T01:55:30.324Z,9.29
2023-03-19T01:59:30.367Z,8.45
2023-03-19T02:03:30.364Z,7.96
2023-03-19T02:07:30.298Z,9.05
2023-03-19T02:11:30.334Z,8.57
2023-03-19T02:15:30.353Z,8.12
2023-03-19T02:19:30.524Z,8.41
2023-03-19T02:23:30.690Z,7.23
2023-03-19T02:27:30.681Z,7.82
2023-03-19T02:31:30.900Z,7.39
2023-03-19T02:35:30.980Z,7.55
2023-03-19T02:39:31.065Z,6.95
2023-03-19T02:43:31.170Z,6.45
2023-03-19T02:47:31.344Z,7.60
2023-03-19T02:51:31.494Z,7.65
2023-03-19T02:55:31.593Z,7.26
2023-03-19T02:59:31.680Z,7.80
2023-03-19T03:03:31.656Z,7.65
2023-03-19T03:07:31.696Z,6.75
2023-03-19T03:11:31.812Z,7.12
2023-03-19T03:15:31.885Z,6.58
2023-03-19T03:19:32.372Z,7.13
2023-03-19T03:23:32.135Z,7.39
2023-03-19T03:27:32.213Z,7.88
2023-03-19T03:31:32.463Z,7.29
2023-03-19T03:35:32.547Z,7.62
2023-03-19T03:39:32.649Z,7.56
2023-03-19T03:43:32.713Z,7.63
2023-03-19T03:47:32.889Z,8.02
2023-03-19T03:51:33.091Z,7.53
2023-03-19T03:55:33.165Z,7.39
2023-03-19T03:59:33.319Z,7.64
2023-03-19T04:03:33.504Z,7.26
2023-03-19T04:07:33.637Z,7.64
2023-03-19T04:11:33.769Z,8.45
2023-03-19T04:15:33.945Z,8.02
2023-03-19T04:19:33.997Z,7.58
2023-03-19T04:23:34.072Z,6.78
2023-03-19T04:27:34.271Z,5.96
2023-03-19T04:31:34.432Z,6.02
2023-03-19T04:35:34.624Z,7.10
2023-03-19T04:39:34.997Z,6.79
2023-03-19T04:43:35.064Z,7.31
2023-03-19T04:47:35.261Z,7.14
2023-03-19T04:51:35.318Z,7.33
2023-03-19T04:55:35.414Z,6.99
2023-03-19T04:59:36.498Z,7.67
2023-03-19T05:03:36.601Z,11.68
2023-03-19T05:07:35.615Z,10.04
2023-03-19T05:11:35.455Z,7.88
2023-03-19T05:15:35.657Z,8.07
2023-03-19T05:19:35.939Z,8.14
2023-03-19T05:23:35.475Z,7.47
2023-03-19T05:27:35.330Z,9.35
2023-03-19T05:31:35.399Z,8.09
2023-03-19T05:35:35.582Z,8.74
2023-03-19T05:39:35.704Z,8.83
2023-03-19T05:43:35.836Z,7.59
2023-03-19T05:47:36.077Z,8.55
2023-03-19T05:51:36.117Z,9.47
2023-03-19T05:55:36.226Z,8.70
2023-03-19T05:59:36.566Z,8.44
2023-03-19T06:03:36.897Z,10.33
2023-03-19T06:07:36.875Z,10.67
2023-03-19T06:11:36.831Z,10.23
2023-03-19T06:15:36.900Z,11.38
2023-03-19T06:19:37.028Z,10.73
2023-03-19T06:23:37.226Z,9.68
2023-03-19T06:27:37.319Z,9.87
2023-03-19T06:31:37.592Z,10.25
2023-03-19T06:35:37.702Z,10.48
2023-03-19T06:39:37.748Z,10.59
2023-03-19T06:43:38.031Z,12.61
2023-03-19T06:47:37.964Z,13.32
2023-03-19T06:51:38.043Z,11.26
2023-03-19T06:55:38.224Z,9.91
2023-03-19T06:59:38.532Z,8.83
2023-03-19T07:03:38.562Z,9.13
2023-03-19T07:07:38.750Z,8.46
2023-03-19T07:11:38.766Z,9.32
2023-03-19T07:15:38.952Z,8.43
2023-03-19T07:19:39.100Z,8.29
2023-03-19T07:23:39.205Z,8.69
2023-03-19T07:27:39.375Z,7.79
2023-03-19T07:31:39.511Z,8.58
2023-03-19T07:35:39.776Z,7.57
2023-03-19T07:39:39.898Z,8.17
2023-03-19T07:43:39.701Z,7.35
2023-03-19T07:47:40.899Z,6.48
2023-03-19T07:51:40.056Z,6.83
2023-03-19T07:55:40.228Z,6.04
2023-03-19T07:59:40.455Z,6.83
2023-03-19T08:03:40.554Z,6.99
2023-03-19T08:07:40.762Z,6.24
2023-03-19T08:11:40.792Z,6.97
2023-03-19T08:15:40.758Z,5.88
2023-03-19T08:19:41.103Z,6.83
2023-03-19T08:23:40.990Z,7.06
2023-03-19T08:27:41.133Z,6.67
2023-03-19T08:31:41.244Z,8.01
2023-03-19T08:35:41.434Z,7.02
2023-03-19T08:39:41.483Z,9.79
2023-03-19T08:43:41.554Z,9.04
2023-03-19T08:47:41.776Z,8.22
2023-03-19T08:51:42.558Z,8.64
2023-03-19T08:55:41.817Z,8.77
2023-03-19T08:59:42.052Z,8.57
2023-03-19T09:03:42.109Z,8.73
2023-03-19T09:07:42.212Z,8.68
2023-03-19T09:11:42.573Z,10.13
2023-03-19T09:15:42.403Z,9.87
2023-03-19T09:19:42.536Z,9.54
2023-03-19T09:23:42.493Z,10.06
2023-03-19T09:27:42.652Z,10.73
2023-03-19T09:31:42.926Z,9.59
2023-03-19T09:35:43.197Z,10.47
2023-03-19T09:39:43.150Z,9.20
2023-03-19T09:43:43.293Z,9.73
2023-03-19T09:47:43.443Z,8.87
2023-03-19T09:51:43.792Z,9.13
2023-03-19T09:55:43.653Z,8.60
2023-03-19T09:59:43.722Z,7.62
2023-03-19T10:03:44.133Z,7.72
2023-03-19T10:07:44.040Z,8.35
2023-03-19T10:11:44.228Z,7.54
2023-03-19T10:15:44.395Z,7.74
2023-03-19T10:19:44.635Z,5.83
2023-03-19T10:23:44.479Z,6.22
2023-03-19T10:27:44.616Z,6.33
2023-03-19T10:31:44.740Z,6.62
2023-03-19T10:35:44.816Z,6.52
2023-03-19T10:39:45.051Z,5.66
2023-03-19T10:43:45.009Z,5.21
2023-03-19T10:47:45.393Z,6.05
2023-03-19T10:51:45.376Z,5.35
2023-03-19T10:55:45.430Z,5.05
2023-03-19T10:59:45.623Z,4.77
2023-03-19T11:03:45.721Z,5.27
2023-03-19T11:07:45.784Z,4.97
2023-03-19T11:11:46.278Z,5.57
2023-03-19T11:15:45.986Z,7.17
2023-03-19T11:19:46.204Z,7.78
2023-03-19T11:23:46.347Z,7.61
2023-03-19T11:27:46.453Z,9.52
2023-03-19T11:31:46.567Z,9.12
2023-03-19T11:35:46.718Z,9.17
2023-03-19T11:39:46.742Z,8.53
2023-03-19T11:43:46.937Z,8.29
2023-03-19T11:47:46.992Z,8.32
2023-03-19T11:51:47.120Z,8.62
2023-03-19T11:55:47.247Z,8.46
2023-03-19T11:59:47.319Z,8.38
2023-03-19T12:03:47.494Z,8.36
2023-03-19T12:07:47.986Z,10.16
2023-03-19T12:11:47.676Z,9.11
2023-03-19T12:15:47.801Z,8.03
2023-03-19T12:19:47.866Z,9.06
2023-03-19T12:23:47.935Z,9.45
2023-03-19T12:27:48.108Z,7.52
2023-03-19T12:31:48.172Z,7.40
2023-03-19T12:35:48.357Z,7.38
2023-03-19T12:39:48.528Z,7.90
2023-03-19T12:43:48.446Z,6.48
2023-03-19T12:47:48.377Z,6.67
2023-03-19T12:51:48.343Z,7.00
2023-03-19T12:55:48.312Z,7.30
2023-03-19T12:59:48.337Z,6.80
2023-03-19T13:03:48.256Z,7.07
2023-03-19T13:07:48.224Z,6.29
2023-03-19T13:11:48.198Z,8.88
2023-03-19T13:15:48.170Z,6.91
2023-03-19T13:19:48.111Z,6.53
2023-03-19T13:23:48.122Z,5.57
2023-03-19T13:27:48.075Z,5.76
2023-03-19T13:31:48.047Z,6.40
2023-03-19T13:35:48.108Z,6.95
2023-03-19T13:39:48.219Z,6.52
2023-03-19T13:43:48.376Z,5.98
2023-03-19T13:47:48.509Z,5.97
2023-03-19T13:51:48.544Z,6.92
2023-03-19T13:55:48.708Z,6.41
2023-03-19T13:59:48.880Z,5.13
2023-03-19T14:03:48.942Z,5.09
2023-03-19T14:07:49.125Z,4.98
2023-03-19T14:11:49.305Z,4.65
2023-03-19T14:15:49.441Z,4.23
2023-03-19T14:19:50.236Z,4.62
2023-03-19T14:23:49.864Z,4.18
2023-03-19T14:27:49.874Z,5.31
2023-03-19T14:31:50.010Z,5.33
2023-03-19T14:35:50.083Z,5.42
2023-03-19T14:39:50.218Z,4.64
2023-03-19T14:43:50.318Z,3.79
2023-03-19T14:47:50.498Z,4.87
2023-03-19T14:51:50.672Z,4.76
2023-03-19T14:55:50.711Z,4.13
2023-03-19T14:59:50.881Z,4.37
2023-03-19T15:03:50.994Z,5.26
2023-03-19T15:07:51.173Z,4.24
2023-03-19T15:11:52.102Z,4.13
2023-03-19T15:15:51.593Z,6.08
2023-03-19T15:19:52.635Z,6.11
2023-03-19T15:23:51.712Z,5.25
2023-03-19T15:27:51.867Z,6.36
2023-03-19T15:32:04.248Z,7.00
2023-03-19T15:35:53.074Z,7.60
2023-03-19T15:39:51.936Z,5.65
2023-03-19T15:43:52.034Z,5.85
2023-03-19T15:47:52.058Z,6.52
2023-03-19T15:51:52.095Z,8.04
2023-03-19T15:55:52.378Z,5.90
2023-03-19T15:59:52.416Z,6.74
2023-03-19T16:03:52.578Z,6.36
2023-03-19T16:07:52.743Z,7.25
2023-03-19T16:11:52.917Z,6.60
2023-03-19T16:15:53.219Z,6.47
2023-03-19T16:19:53.230Z,6.88
2023-03-19T16:23:53.337Z,6.48
2023-03-19T16:27:53.338Z,7.28
2023-03-19T16:31:53.409Z,7.10
2023-03-19T16:35:53.669Z,6.57
2023-03-19T16:39:53.701Z,3.89
2023-03-19T16:43:53.781Z,3.55
2023-03-19T16:47:53.955Z,3.78
2023-03-19T16:51:54.028Z,3.52
2023-03-19T16:55:54.245Z,3.72
2023-03-19T16:59:54.670Z,2.71
2023-03-19T17:03:54.385Z,3.33
2023-03-19T17:07:54.565Z,3.46
2023-03-19T17:11:55.732Z,3.17
2023-03-19T17:15:55.023Z,3.02
2023-03-19T17:19:55.090Z,3.40
2023-03-19T17:23:55.078Z,3.30
2023-03-19T17:27:56.681Z,3.24
2023-03-19T17:31:55.499Z,3.18
2023-03-19T17:35:55.555Z,3.55
2023-03-19T17:39:55.574Z,3.28
2023-03-19T17:43:55.849Z,3.39
2023-03-19T17:47:55.935Z,3.71
2023-03-19T17:51:56.116Z,4.08
2023-03-19T17:55:56.137Z,5.34
2023-03-19T17:59:56.303Z,5.39
2023-03-19T18:03:58.232Z,4.35
2023-03-19T18:07:56.719Z,5.34
2023-03-19T18:11:56.717Z,6.33
2023-03-19T18:15:57.690Z,6.06
2023-03-19T18:19:56.913Z,7.11
2023-03-19T18:23:57.129Z,7.34
2023-03-19T18:27:57.150Z,7.74
2023-03-19T18:31:57.424Z,7.97
2023-03-19T18:35:57.514Z,4.07
2023-03-19T18:39:57.452Z,4.21
2023-03-19T18:43:57.696Z,3.42
2023-03-19T18:47:57.814Z,3.63
2023-03-19T18:52:04.560Z,3.74
2023-03-19T18:55:58.811Z,4.82
2023-03-19T18:59:57.813Z,4.68
2023-03-19T19:03:57.744Z,4.62
2023-03-19T19:07:57.839Z,4.15
2023-03-19T19:11:58.384Z,4.57
2023-03-19T19:15:58.114Z,4.67
2023-03-19T19:19:58.176Z,4.42
2023-03-19T19:23:58.348Z,3.68
2023-03-19T19:27:59.467Z,3.33
2023-03-19T19:31:58.647Z,3.65
2023-03-19T19:35:58.723Z,3.44
2023-03-19T19:39:58.750Z,4.59
2023-03-19T19:43:59.164Z,3.22
2023-03-19T19:47:59.047Z,4.00
2023-03-19T19:51:59.288Z,4.45
2023-03-19T19:55:59.363Z,4.22
2023-03-19T19:59:59.329Z,3.37
2023-03-19T20:03:59.515Z,2.91
2023-03-19T20:07:59.509Z,3.65
2023-03-19T20:11:59.845Z,4.14
2023-03-19T20:15:59.925Z,3.46
2023-03-19T20:19:59.888Z,4.32
2023-03-19T20:23:59.966Z,3.83
2023-03-19T20:28:00.143Z,3.83
2023-03-19T20:32:00.216Z,4.21
2023-03-19T20:36:00.370Z,3.88
2023-03-19T20:40:00.413Z,4.07
2023-03-19T20:44:00.465Z,4.50
2023-03-19T20:48:00.613Z,4.21
2023-03-19T20:52:00.688Z,5.06
2023-03-19T20:56:00.717Z,5.20
2023-03-19T21:00:00.792Z,4.29
2023-03-19T21:04:00.873Z,4.60
2023-03-19T21:08:01.088Z,4.63
2023-03-19T21:12:01.221Z,4.78
2023-03-19T21:16:01.318Z,4.76
2023-03-19T21:20:01.471Z,5.60
2023-03-19T21:24:01.685Z,4.68
2023-03-19T21:28:01.784Z,4.73
2023-03-19T21:32:01.816Z,4.49
2023-03-19T21:36:01.982Z,5.34
2023-03-19T21:40:02.122Z,5.19
2023-03-19T21:44:02.137Z,6.79
2023-03-19T21:48:02.225Z,7.12
2023-03-19T21:52:02.296Z,6.63
2023-03-19T21:56:02.485Z,6.16
2023-03-19T22:00:02.582Z,5.24
2023-03-19T22:04:02.809Z,4.89
2023-03-19T22:08:02.631Z,5.50
2023-03-19T22:12:03.673Z,4.71
2023-03-19T22:16:02.806Z,4.10
2023-03-19T22:20:02.950Z,4.41
2023-03-19T22:24:03.188Z,4.60
2023-03-19T22:28:03.362Z,5.30
2023-03-19T22:32:03.455Z,4.59
2023-03-19T22:36:03.531Z,3.82
2023-03-19T22:40:03.733Z,2.81
2023-03-19T22:44:03.804Z,3.41
2023-03-19T22:48:03.962Z,3.55
2023-03-19T22:52:04.140Z,3.11
2023-03-19T22:56:04.307Z,3.58
2023-03-19T23:00:04.423Z,3.23
2023-03-19T23:04:04.622Z,3.34
2023-03-19T23:08:06.223Z,3.51
2023-03-19T23:12:04.733Z,3.24
2023-03-19T23:16:05.020Z,3.74
2023-03-19T23:20:04.985Z,3.88
2023-03-19T23:24:05.177Z,3.26
2023-03-19T23:28:05.243Z,2.83
2023-03-19T23:32:05.356Z,3.08
2023-03-19T23:36:05.389Z,3.11
2023-03-19T23:40:05.488Z,3.28
2023-03-19T23:44:05.724Z,3.21
2023-03-19T23:48:05.823Z,2.25
2023-03-19T23:52:05.869Z,2.35
2023-03-19T23:56:05.942Z,1.85
